createdAt,value
2022-09-25T00:03:38.950Z,154.37
2022-09-25T00:09:10.524Z,154.51
2022-09-25T00:14:42.280Z,156.40
2022-09-25T00:20:14.274Z,154.09
2022-09-25T00:25:46.105Z,153.52
2022-09-25T00:31:17.546Z,152.82
2022-09-25T00:36:49.173Z,151.98
2022-09-25T00:42:20.854Z,153.24
2022-09-25T00:47:52.698Z,151.43
2022-09-25T00:53:24.781Z,151.43
2022-09-25T00:58:56.145Z,153.38
2022-09-25T01:04:27.556Z,155.23
2022-09-25T01:09:58.882Z,155.81
2022-09-25T01:15:30.205Z,156.25
2022-09-25T01:21:02.108Z,160.46
2022-09-25T01:26:33.647Z,160.46
2022-09-25T01:32:05.366Z,160.92
2022-09-25T01:37:36.904Z,160.77
2022-09-25T01:43:08.383Z,160.77
2022-09-25T01:48:39.858Z,160.61
2022-09-25T01:59:43.430Z,161.23
2022-09-25T02:05:15.369Z,160.46
2022-09-25T02:10:47.037Z,160.92
2022-09-25T02:16:18.579Z,159.54
2022-09-25T02:21:50.120Z,161.23
2022-09-25T02:27:22.058Z,161.08
2022-09-25T02:32:53.646Z,161.70
2022-09-25T02:38:25.558Z,159.84
2022-09-25T02:43:57.335Z,160.30
2022-09-25T02:54:58.555Z,160.77
2022-09-25T03:00:30.519Z,161.23
2022-09-25T03:11:34.136Z,160.15
2022-09-25T03:17:05.831Z,158.63
2022-09-25T03:22:37.564Z,161.08
2022-09-25T03:28:09.400Z,160.92
2022-09-25T03:33:41.420Z,160.61
2022-09-25T03:39:13.039Z,162.96
2022-09-25T03:44:44.709Z,164.25
2022-09-25T03:47:08.125Z,163.60
2022-09-25T03:52:39.611Z,165.22
2022-09-25T03:58:11.141Z,164.57
2022-09-25T04:09:11.960Z,163.92
2022-09-25T04:20:14.796Z,165.88
2022-09-25T04:25:46.057Z,167.54
2022-09-25T04:31:17.304Z,167.54
2022-09-25T04:36:48.734Z,166.71
2022-09-25T04:42:20.437Z,166.38
2022-09-25T04:47:51.828Z,165.55
2022-09-25T04:53:23.532Z,166.88
2022-09-25T04:58:54.757Z,164.57
2022-09-25T05:04:26.031Z,166.88
2022-09-25T05:09:57.284Z,165.39
2022-09-25T05:15:28.597Z,164.90
2022-09-25T05:26:33.115Z,164.25
2022-09-25T05:32:04.462Z,164.09
2022-09-25T05:37:35.837Z,165.22
2022-09-25T05:43:07.018Z,164.90
2022-09-25T05:48:38.468Z,164.57
2022-09-25T05:54:10.191Z,165.55
2022-09-25T06:05:12.849Z,165.55
2022-09-25T06:10:44.155Z,165.71
2022-09-25T06:16:15.713Z,165.55
2022-09-25T06:21:46.927Z,164.90
2022-09-25T06:38:16.934Z,166.21
2022-09-25T06:43:48.255Z,165.06
2022-09-25T06:49:19.356Z,165.06
2022-09-25T06:54:50.828Z,164.09
2022-09-25T07:00:22.119Z,165.22
2022-09-25T07:05:53.486Z,165.71
2022-09-25T07:11:24.788Z,166.88
2022-09-25T07:16:56.548Z,168.90
2022-09-25T07:22:28.006Z,172.21
2022-09-25T07:27:59.216Z,171.68
2022-09-25T07:33:30.829Z,175.10
2022-09-25T07:39:02.640Z,177.90
2022-09-25T07:44:38.272Z,180.02
2022-09-25T07:50:05.385Z,179.82
2022-09-25T07:55:43.846Z,180.21
2022-09-25T08:01:15.301Z,183.38
2022-09-25T08:06:46.486Z,184.80
2022-09-25T08:12:17.768Z,180.21
2022-09-25T08:17:49.125Z,181.39
2022-09-25T08:23:20.266Z,180.99
2022-09-25T08:28:51.706Z,183.38
2022-09-25T08:39:54.747Z,184.19
2022-09-25T08:45:26.223Z,182.78
2022-09-25T08:50:58.091Z,182.18
2022-09-25T09:01:58.960Z,185.83
2022-09-25T09:07:30.668Z,185.62
2022-09-25T09:13:01.941Z,185.62
2022-09-25T09:18:33.308Z,183.99
2022-09-25T09:24:04.711Z,185.42
2022-09-25T09:29:35.998Z,184.60
2022-09-25T09:35:07.590Z,183.18
2022-09-25T09:40:38.987Z,183.58
2022-09-25T09:51:39.843Z,182.18
2022-09-25T09:57:11.198Z,183.58
2022-09-25T10:02:42.542Z,179.82
2022-09-25T10:08:13.812Z,177.53
2022-09-25T10:13:45.287Z,176.40
2022-09-25T10:19:17.001Z,175.66
2022-09-25T10:24:48.228Z,172.39
2022-09-25T10:30:19.627Z,172.04
2022-09-25T10:41:20.717Z,164.57
2022-09-25T10:46:52.366Z,159.23
2022-09-25T10:52:24.059Z,155.52
2022-09-25T10:57:55.387Z,151.15
2022-09-25T11:08:56.171Z,144.73
2022-09-25T11:14:27.496Z,141.78
2022-09-25T11:19:59.327Z,142.51
2022-09-25T11:25:30.671Z,138.49
2022-09-25T11:31:02.477Z,138.14
2022-09-25T11:36:34.220Z,136.00
2022-09-25T11:44:25.452Z,135.12
2022-09-25T11:49:56.539Z,136.45
2022-09-25T11:55:28.069Z,135.34
2022-09-25T12:00:59.320Z,133.93
2022-09-25T12:06:30.589Z,133.61
2022-09-25T12:12:01.965Z,134.04
2022-09-25T12:17:33.255Z,133.29
2022-09-25T12:23:04.608Z,133.82
2022-09-25T12:28:35.940Z,133.29
2022-09-25T12:34:07.342Z,134.14
2022-09-25T12:39:38.541Z,134.79
2022-09-25T12:45:09.949Z,134.79
2022-09-25T12:50:41.746Z,135.01
2022-09-25T12:56:13.494Z,136.22
2022-09-25T13:01:45.444Z,136.78
2022-09-25T13:07:17.117Z,135.78
2022-09-25T13:12:48.907Z,136.90
2022-09-25T13:23:49.699Z,137.91
2022-09-25T13:29:21.540Z,138.49
2022-09-25T13:34:53.408Z,138.72
2022-09-25T13:40:25.328Z,139.29
2022-09-25T13:45:57.338Z,142.02
2022-09-25T13:51:28.757Z,141.66
2022-09-25T13:57:00.080Z,142.51
2022-09-25T14:08:01.003Z,143.73
2022-09-25T14:13:32.686Z,144.11
2022-09-25T14:19:04.162Z,144.98
2022-09-25T14:24:35.525Z,144.11
2022-09-25T14:35:36.300Z,145.74
2022-09-25T14:41:07.943Z,144.98
2022-09-25T14:46:39.477Z,144.61
2022-09-25T14:57:41.577Z,143.49
2022-09-25T15:03:12.794Z,142.26
2022-09-25T15:19:46.734Z,142.26
2022-09-25T15:25:18.321Z,144.36
2022-09-25T15:30:49.931Z,143.12
2022-09-25T15:36:21.568Z,143.24
2022-09-25T15:41:52.811Z,143.24
2022-09-25T15:47:24.265Z,145.24
2022-09-25T15:52:55.893Z,146.51
2022-09-25T15:58:27.411Z,148.73
2022-09-25T16:03:58.832Z,148.20
2022-09-25T16:09:30.105Z,148.73
2022-09-25T16:15:01.451Z,151.43
2022-09-25T16:20:32.794Z,154.37
2022-09-25T16:31:36.205Z,153.66
2022-09-25T16:37:08.510Z,153.66
2022-09-25T16:42:39.986Z,153.80
2022-09-25T16:48:11.537Z,153.52
2022-09-25T16:53:43.323Z,154.37
2022-09-25T16:59:14.997Z,154.94
2022-09-25T17:04:46.169Z,155.23
2022-09-25T17:10:17.516Z,154.94
2022-09-25T17:21:18.411Z,155.67
2022-09-25T17:26:50.103Z,156.54
2022-09-25T17:32:21.334Z,157.43
2022-09-25T17:37:52.651Z,157.28
2022-09-25T17:43:24.022Z,158.03
2022-09-25T17:48:55.418Z,158.63
2022-09-25T17:54:27.229Z,159.23
2022-09-25T17:59:58.537Z,159.69
2022-09-25T18:05:30.315Z,159.99
2022-09-25T18:11:02.067Z,161.23
2022-09-25T18:16:33.519Z,161.39
2022-09-25T18:22:05.230Z,161.70
2022-09-25T18:27:36.977Z,162.01
2022-09-25T18:33:08.318Z,163.44
2022-09-25T18:38:40.109Z,164.73
2022-09-25T18:44:11.915Z,165.55
2022-09-25T18:55:13.425Z,167.71
2022-09-25T19:00:44.932Z,167.88
2022-09-25T19:06:18.103Z,168.05
2022-09-25T19:11:49.656Z,168.56
2022-09-25T19:17:21.261Z,170.46
2022-09-25T19:22:52.711Z,169.42
2022-09-25T19:28:24.456Z,169.24
2022-09-25T19:33:56.132Z,171.15
2022-09-25T19:39:27.562Z,169.42
2022-09-25T19:50:27.878Z,170.80
2022-09-25T19:58:23.317Z,173.83
2022-09-25T20:03:52.233Z,174.01
2022-09-25T20:14:52.913Z,172.57
2022-09-25T20:20:24.246Z,173.11
2022-09-25T20:25:55.552Z,171.86
2022-09-25T20:31:27.057Z,168.90
2022-09-25T20:36:58.230Z,168.56
2022-09-25T20:42:29.531Z,166.38
2022-09-25T20:48:02.005Z,163.12
2022-09-25T20:53:33.744Z,163.92
2022-09-25T20:59:05.436Z,163.44
2022-09-25T21:04:36.721Z,163.12
2022-09-25T21:10:07.994Z,163.28
2022-09-25T21:15:39.378Z,163.92
2022-09-25T21:21:10.950Z,163.76
2022-09-25T21:26:42.509Z,165.39
2022-09-25T21:32:13.603Z,163.60
2022-09-25T21:37:45.199Z,163.60
2022-09-25T21:43:16.846Z,162.01
2022-09-25T21:48:48.053Z,159.84
2022-09-25T21:54:19.354Z,157.58
2022-09-25T21:59:50.695Z,158.32
2022-09-25T22:05:22.275Z,159.08
2022-09-25T22:10:53.701Z,159.99
2022-09-25T22:21:54.555Z,161.86
2022-09-25T22:27:25.977Z,160.15
2022-09-25T22:32:57.717Z,159.08
2022-09-25T22:38:29.423Z,160.30
2022-09-25T22:44:01.283Z,162.65
2022-09-25T23:00:31.205Z,169.42
2022-09-25T23:06:02.972Z,166.88
2022-09-25T23:11:34.596Z,166.54
2022-09-25T23:17:05.953Z,166.38
2022-09-25T23:22:37.396Z,167.54
2022-09-25T23:28:09.059Z,165.39
2022-09-25T23:33:40.487Z,164.25
2022-09-25T23:39:11.861Z,160.61
2022-09-25T23:44:43.122Z,160.61
2022-09-25T23:50:14.359Z,159.54
2022-09-25T23:55:45.695Z,159.23
